Airfield :







YOU CAN JOIN US ON...

 
LOGIN :

Register | Disclaimer

   EN    FR    IT 

 









Legend :    VFR   Marginal VFR   IFR   Intensive IFR   Very Intensive IFR
Visi :
Ceiling :
>= 8 km
>= 3000ft
5 to 8 km
1000 to 3000 ft
1500m to 5 km
500 to 1000 ft
800 to 1500m
200 to 500 ft
< 800m
< 200 ft
Symbols :   Thunderstorms  Fog  Heavy snow  Heavy precipitations  Wind > 20 kt







- Airport Elevation : 1709 ft
- IATA code : YKL


CYKL - Schefferville

CURRENT METAR :
  • 131518Z AUTO 21004KT 170V230 7SM -SN OVC009 M11/M13 A2994 RMK SLP184

EXPIRED METARs :
  • 131505Z AUTO VRB02KT 9SM OVC009 M12/M13 A2994 RMK SLP185
  • 131454Z AUTO 22006KT 9SM -SN BKN011 OVC090 M12/M13 A2995 RMK SLP187
  • 131451Z AUTO 22006KT 9SM BKN011 OVC090 M12/M13 A2995 RMK SLP187
  • 131400Z AUTO 22009KT 9SM -SN OVC011 M12/M13 A2997 RMK SLP196
  • 131300Z AUTO 24004KT 9SM -SN OVC011 M11/M12 A2998 RMK SLP196

TAF AMD TAF CYKL
Valid from the 13 at 15:00 until the 14 at 02:00 UTC


131513Z 1315/1402 VRB03KT 4SM -SN OVC009
TEMPO 1315/1320 P6SM NSW SCT009 BKN090
FM132000 17008KT 5SM -SN OVC015
TEMPO 1320/1401 P6SM NSW SCT015 OVC025
PROB30 1320/1401 3SM -SN BKN007 OVC015
FM140100 17008KT 2SM -SN OVC015 RMK FCST BASED ON AUTO OBS. NXT FCST BY 132000Z
CZUL FIR / North America



MET'MAP, your aeronautical weather chart ! - Copyright ORBIFLY December 2007 - Disclaimer

ORBIFLY MET'MAP TEAM :

Programming & Development : Alexandra Zaïnal
Concept & Development : Baudouin d'Aumeries
Co-Development & Prog : Marc-Olivier Méhu
Technical & hardware support : Manuel Goepfert

Contact : metmap@orbifly.com




SOURCES & CREDITS :

   NOAA